createdAt,value
2018-06-20T00:01:35.129Z,1.50
2018-06-20T00:04:01.805Z,1.47
2018-06-20T00:06:30.881Z,1.20
2018-06-20T00:08:57.635Z,1.50
2018-06-20T00:11:24.862Z,1.50
2018-06-20T00:13:52.499Z,1.47
2018-06-20T00:16:19.766Z,1.30
2018-06-20T00:18:46.514Z,1.77
2018-06-20T00:21:13.296Z,1.30
2018-06-20T00:23:40.039Z,1.20
2018-06-20T00:26:06.712Z,1.40
2018-06-20T00:28:34.012Z,1.30
2018-06-20T00:31:00.736Z,1.27
2018-06-20T00:33:27.568Z,1.50
2018-06-20T00:35:54.387Z,1.30
2018-06-20T00:38:21.138Z,1.30
2018-06-20T00:40:47.867Z,1.80
2018-06-20T00:43:15.430Z,1.50
2018-06-20T00:45:42.284Z,1.20
2018-06-20T00:48:08.982Z,1.30
2018-06-20T00:50:35.738Z,1.30
2018-06-20T00:53:02.431Z,1.30
2018-06-20T00:55:29.196Z,1.40
2018-06-20T00:57:56.046Z,1.40
2018-06-20T01:00:22.756Z,1.40
2018-06-20T01:02:49.410Z,1.40
2018-06-20T01:05:16.040Z,1.60
2018-06-20T01:07:42.728Z,1.23
2018-06-20T01:10:09.385Z,1.50
2018-06-20T01:12:36.532Z,1.40
2018-06-20T01:15:03.230Z,1.40
2018-06-20T01:17:29.896Z,1.67
2018-06-20T01:19:56.684Z,1.50
2018-06-20T01:22:23.532Z,1.50
2018-06-20T01:24:50.345Z,1.60
2018-06-20T01:27:17.074Z,1.60
2018-06-20T01:29:43.909Z,1.67
2018-06-20T01:32:10.707Z,1.60
2018-06-20T01:34:37.464Z,1.55
2018-06-20T01:37:04.247Z,1.47
2018-06-20T01:39:31.032Z,1.63
2018-06-20T01:41:57.762Z,1.80
2018-06-20T01:44:24.569Z,1.60
2018-06-20T01:46:51.357Z,1.70
2018-06-20T01:49:18.086Z,1.77
2018-06-20T01:51:44.878Z,1.83
2018-06-20T01:54:11.573Z,1.87
2018-06-20T01:56:38.430Z,1.42
2018-06-20T01:59:05.220Z,1.73
2018-06-20T02:01:31.999Z,1.70
2018-06-20T02:03:58.722Z,1.77
2018-06-20T02:06:25.445Z,1.90
2018-06-20T02:08:58.991Z,1.77
2018-06-20T02:11:26.103Z,2.00
2018-06-20T02:13:52.813Z,1.73
2018-06-20T02:16:19.478Z,1.77
2018-06-20T02:18:46.179Z,1.73
2018-06-20T02:21:12.916Z,2.00
2018-06-20T02:23:39.611Z,2.27
2018-06-20T02:26:06.370Z,2.40
2018-06-20T02:28:33.093Z,1.93
2018-06-20T02:30:59.901Z,1.90
2018-06-20T02:33:26.617Z,2.00
2018-06-20T02:35:53.371Z,2.17
2018-06-20T02:38:20.071Z,1.90
2018-06-20T02:40:46.784Z,2.20
2018-06-20T02:43:13.532Z,2.07
2018-06-20T02:45:40.353Z,2.00
2018-06-20T02:48:07.147Z,2.33
2018-06-20T02:50:33.945Z,2.23
2018-06-20T02:53:00.629Z,2.50
2018-06-20T02:55:27.351Z,2.40
2018-06-20T02:57:54.026Z,2.40
2018-06-20T03:00:20.741Z,2.10
2018-06-20T03:02:47.481Z,2.40
2018-06-20T03:05:14.243Z,2.37
2018-06-20T03:07:41.091Z,2.47
2018-06-20T03:10:07.856Z,2.13
2018-06-20T03:12:34.554Z,2.10
2018-06-20T03:15:01.315Z,2.30
2018-06-20T03:17:28.130Z,2.40
2018-06-20T03:19:54.857Z,2.33
2018-06-20T03:22:21.568Z,2.20
2018-06-20T03:24:48.364Z,2.30
2018-06-20T03:27:16.730Z,2.17
2018-06-20T03:29:45.268Z,2.43
2018-06-20T03:32:14.728Z,2.30
2018-06-20T03:34:42.108Z,2.50
2018-06-20T03:37:09.028Z,2.27
2018-06-20T03:39:35.864Z,2.10
2018-06-20T03:42:02.758Z,2.33
2018-06-20T03:44:29.504Z,2.00
2018-06-20T03:46:56.217Z,2.30
2018-06-20T03:49:22.948Z,2.03
2018-06-20T03:51:49.701Z,2.27
2018-06-20T03:54:16.494Z,2.03
2018-06-20T03:56:43.221Z,1.90
2018-06-20T03:59:09.956Z,2.07
2018-06-20T04:01:36.776Z,2.20
2018-06-20T04:04:03.547Z,2.03
2018-06-20T04:06:30.415Z,2.13
2018-06-20T04:08:57.149Z,2.20
2018-06-20T04:11:24.027Z,1.97
2018-06-20T04:13:50.880Z,1.87
2018-06-20T04:16:17.671Z,2.30
2018-06-20T04:18:44.841Z,2.03
2018-06-20T04:21:12.712Z,2.00
2018-06-20T04:23:40.183Z,1.83
2018-06-20T04:26:08.480Z,1.77
2018-06-20T04:28:35.533Z,1.87
2018-06-20T04:31:03.758Z,2.00
2018-06-20T04:33:31.009Z,1.77
2018-06-20T04:35:58.371Z,1.90
2018-06-20T04:38:25.565Z,2.03
2018-06-20T04:40:53.811Z,2.03
2018-06-20T04:43:21.304Z,2.20
2018-06-20T04:45:48.056Z,1.93
2018-06-20T04:48:15.853Z,2.17
2018-06-20T04:50:43.918Z,2.10
2018-06-20T04:53:10.706Z,2.23
2018-06-20T04:55:37.461Z,2.37
2018-06-20T04:58:04.882Z,2.10
2018-06-20T05:00:31.693Z,2.37
2018-06-20T05:02:59.104Z,2.40
2018-06-20T05:05:26.102Z,2.33
2018-06-20T05:07:57.253Z,2.77
2018-06-20T05:13:13.394Z,2.90
2018-06-20T05:15:40.197Z,3.00
2018-06-20T05:18:07.060Z,2.60
2018-06-20T05:20:33.826Z,2.50
2018-06-20T05:23:00.671Z,2.60
2018-06-20T05:25:27.820Z,2.40
2018-06-20T05:27:54.537Z,2.20
2018-06-20T05:30:21.530Z,2.83
2018-06-20T05:32:48.294Z,2.70
2018-06-20T05:35:15.032Z,2.70
2018-06-20T05:37:41.832Z,2.93
2018-06-20T05:40:08.633Z,2.10
2018-06-20T05:42:35.445Z,2.53
2018-06-20T05:45:02.195Z,2.27
2018-06-20T05:47:29.004Z,2.30
2018-06-20T05:49:55.753Z,2.43
2018-06-20T05:52:22.525Z,2.00
2018-06-20T05:54:49.349Z,2.03
2018-06-20T05:57:16.125Z,1.90
2018-06-20T05:59:42.885Z,2.10
2018-06-20T06:02:09.661Z,1.87
2018-06-20T06:04:36.434Z,2.17
2018-06-20T06:07:03.234Z,1.80
2018-06-20T06:09:29.981Z,2.03
2018-06-20T06:11:56.750Z,1.90
2018-06-20T06:14:23.378Z,1.70
2018-06-20T06:16:50.119Z,1.67
2018-06-20T06:19:16.951Z,2.00
2018-06-20T06:21:43.724Z,2.00
2018-06-20T06:24:10.534Z,2.10
2018-06-20T06:26:37.297Z,1.63
2018-06-20T06:29:04.039Z,1.70
2018-06-20T06:31:30.808Z,2.07
2018-06-20T06:33:57.655Z,1.33
2018-06-20T06:36:24.449Z,1.80
2018-06-20T06:38:51.279Z,1.63
2018-06-20T06:41:18.048Z,1.80
2018-06-20T06:43:44.839Z,1.90
2018-06-20T06:46:11.633Z,1.87
2018-06-20T06:48:38.481Z,1.90
2018-06-20T06:51:05.263Z,1.60
2018-06-20T06:53:32.157Z,2.03
2018-06-20T06:55:59.158Z,1.70
2018-06-20T06:58:25.913Z,1.90
2018-06-20T07:00:52.705Z,1.80
2018-06-20T07:03:19.569Z,1.67
2018-06-20T07:05:46.352Z,1.70
2018-06-20T07:08:13.403Z,1.80
2018-06-20T07:10:40.266Z,1.90
2018-06-20T07:13:07.057Z,1.70
2018-06-20T07:15:33.793Z,1.70
2018-06-20T07:18:00.604Z,1.80
2018-06-20T07:20:27.418Z,2.10
2018-06-20T07:22:54.350Z,2.20
2018-06-20T07:25:21.296Z,1.87
2018-06-20T07:27:48.134Z,2.03
2018-06-20T07:30:14.936Z,1.50
2018-06-20T07:32:41.682Z,2.13
2018-06-20T07:35:08.559Z,1.90
2018-06-20T07:37:35.336Z,1.83
2018-06-20T07:40:02.176Z,2.20
2018-06-20T07:42:28.939Z,2.23
2018-06-20T07:44:55.743Z,2.27
2018-06-20T07:47:24.527Z,2.07
2018-06-20T07:49:51.319Z,2.73
2018-06-20T07:52:18.140Z,2.00
2018-06-20T07:54:44.997Z,2.47
2018-06-20T07:57:11.850Z,2.10
2018-06-20T07:59:44.059Z,2.10
2018-06-20T08:02:16.280Z,2.45
2018-06-20T08:04:48.695Z,2.17
2018-06-20T08:07:20.900Z,2.52
2018-06-20T08:09:53.199Z,2.57
2018-06-20T08:12:25.598Z,2.27
2018-06-20T08:14:57.962Z,2.60
2018-06-20T08:17:30.386Z,2.37
2018-06-20T08:19:59.093Z,2.43
2018-06-20T08:22:27.560Z,2.30
2018-06-20T08:24:54.357Z,2.30
2018-06-20T08:27:21.140Z,2.27
2018-06-20T08:29:47.899Z,2.80
2018-06-20T08:32:14.675Z,2.62
2018-06-20T08:34:41.447Z,2.30
2018-06-20T08:37:08.357Z,2.70
2018-06-20T08:39:35.081Z,2.75
2018-06-20T08:42:01.958Z,2.20
2018-06-20T08:44:28.730Z,2.00
2018-06-20T08:46:55.494Z,2.45
2018-06-20T08:49:22.312Z,2.30
2018-06-20T08:51:49.052Z,2.30
2018-06-20T08:54:15.822Z,2.30
2018-06-20T08:56:42.525Z,2.37
2018-06-20T08:59:09.250Z,2.47
2018-06-20T09:01:36.000Z,2.13
2018-06-20T09:04:08.230Z,2.00
2018-06-20T09:06:40.530Z,2.08
2018-06-20T09:09:12.724Z,2.10
2018-06-20T09:11:45.021Z,2.00
2018-06-20T09:14:12.189Z,1.97
2018-06-20T09:16:44.412Z,2.20
2018-06-20T09:19:16.765Z,2.60
2018-06-20T09:21:43.926Z,2.47
2018-06-20T09:24:10.824Z,2.45
2018-06-20T09:26:37.652Z,2.45
2018-06-20T09:29:04.499Z,2.35
2018-06-20T09:31:31.251Z,2.43
2018-06-20T09:33:57.988Z,2.50
2018-06-20T09:36:24.812Z,2.87
2018-06-20T09:38:51.775Z,2.55
2018-06-20T09:41:18.494Z,2.43
2018-06-20T09:43:45.221Z,2.17
2018-06-20T09:46:12.004Z,2.92
2018-06-20T09:48:38.777Z,2.27
2018-06-20T09:51:05.471Z,2.77
2018-06-20T09:53:32.321Z,2.33
2018-06-20T09:55:59.072Z,2.83
2018-06-20T09:58:26.027Z,2.50
2018-06-20T10:00:58.407Z,2.70
2018-06-20T10:03:30.739Z,2.90
2018-06-20T10:06:03.047Z,2.60
2018-06-20T10:08:35.255Z,2.35
2018-06-20T10:11:07.598Z,2.62
2018-06-20T10:13:38.865Z,2.65
2018-06-20T10:16:05.587Z,2.55
2018-06-20T10:18:32.296Z,2.33
2018-06-20T10:20:59.125Z,2.30
2018-06-20T10:23:26.014Z,2.35
2018-06-20T10:25:52.745Z,2.47
2018-06-20T10:28:19.570Z,2.87
2018-06-20T10:30:46.461Z,2.83
2018-06-20T10:33:13.274Z,2.45
2018-06-20T10:35:40.115Z,2.85
2018-06-20T10:38:06.866Z,2.80
2018-06-20T10:40:33.662Z,2.70
2018-06-20T10:43:00.353Z,2.70
2018-06-20T10:45:32.525Z,2.50
2018-06-20T10:48:09.607Z,2.83
2018-06-20T10:50:43.952Z,2.50
2018-06-20T10:53:11.754Z,2.63
2018-06-20T10:55:39.146Z,2.85
2018-06-20T10:58:11.287Z,2.87
2018-06-20T11:00:43.729Z,3.33
2018-06-20T11:03:15.874Z,2.83
2018-06-20T11:05:48.171Z,2.90
2018-06-20T11:08:20.264Z,3.12
2018-06-20T11:10:52.632Z,2.87
2018-06-20T11:13:19.333Z,2.95
2018-06-20T11:15:46.324Z,2.98
2018-06-20T11:18:13.114Z,2.98
2018-06-20T11:20:45.573Z,3.02
2018-06-20T11:23:12.321Z,2.83
2018-06-20T11:25:39.039Z,3.50
2018-06-20T11:28:11.037Z,2.92
2018-06-20T11:30:37.770Z,2.80
2018-06-20T11:33:04.535Z,2.90
2018-06-20T11:35:31.371Z,3.17
2018-06-20T11:37:58.065Z,3.05
2018-06-20T11:40:24.761Z,3.50
2018-06-20T11:42:51.447Z,3.30
2018-06-20T11:45:18.215Z,2.87
2018-06-20T11:47:45.893Z,3.00
2018-06-20T11:50:13.481Z,3.22
2018-06-20T11:52:45.833Z,3.20
2018-06-20T11:55:18.107Z,3.47
2018-06-20T11:57:44.846Z,3.20
2018-06-20T12:00:17.059Z,2.95
2018-06-20T12:02:49.338Z,2.65
2018-06-20T12:05:21.702Z,3.02
2018-06-20T12:07:53.993Z,3.12
2018-06-20T12:10:26.285Z,3.00
2018-06-20T12:12:58.577Z,3.33
2018-06-20T12:15:30.899Z,2.95
2018-06-20T12:18:03.183Z,3.15
2018-06-20T12:20:35.469Z,3.33
2018-06-20T12:23:07.813Z,3.10
2018-06-20T12:25:39.972Z,2.50
2018-06-20T12:28:12.274Z,2.65
2018-06-20T12:30:44.550Z,3.15
2018-06-20T12:33:16.784Z,2.95
2018-06-20T12:35:49.194Z,2.67
2018-06-20T12:38:21.539Z,2.72
2018-06-20T12:40:53.783Z,2.70
2018-06-20T12:43:26.060Z,2.62
2018-06-20T12:45:58.359Z,2.80
2018-06-20T12:48:25.149Z,2.50
2018-06-20T12:50:51.976Z,3.15
2018-06-20T12:53:18.747Z,2.95
2018-06-20T12:55:45.477Z,2.72
2018-06-20T12:58:12.197Z,2.50
2018-06-20T13:00:39.070Z,2.70
2018-06-20T13:03:05.872Z,3.02
2018-06-20T13:05:32.580Z,3.00
2018-06-20T13:07:59.352Z,2.67
2018-06-20T13:10:26.063Z,2.75
2018-06-20T13:12:52.851Z,2.52
2018-06-20T13:15:19.602Z,2.40
2018-06-20T13:17:46.412Z,2.52
2018-06-20T13:20:13.251Z,2.65
2018-06-20T13:22:40.008Z,2.67
2018-06-20T13:25:06.724Z,2.35
2018-06-20T13:27:39.135Z,2.50
2018-06-20T13:30:07.903Z,2.45
2018-06-20T13:32:40.115Z,2.33
2018-06-20T13:37:16.359Z,2.50
2018-06-20T13:39:48.713Z,2.27
2018-06-20T13:42:21.034Z,2.08
2018-06-20T13:44:47.764Z,2.58
2018-06-20T13:47:20.108Z,2.33
2018-06-20T13:49:46.970Z,2.30
2018-06-20T13:52:13.773Z,2.85
2018-06-20T13:54:40.559Z,2.27
2018-06-20T13:57:07.302Z,2.30
2018-06-20T13:59:34.035Z,1.90
2018-06-20T14:02:00.758Z,2.25
2018-06-20T14:04:27.480Z,2.30
2018-06-20T14:06:54.283Z,2.30
2018-06-20T14:09:21.056Z,2.30
2018-06-20T14:11:47.765Z,2.30
2018-06-20T14:14:14.547Z,2.00
2018-06-20T14:16:41.271Z,2.02
2018-06-20T14:19:07.979Z,2.05
2018-06-20T14:21:40.679Z,2.02
2018-06-20T14:24:08.489Z,2.20
2018-06-20T14:26:35.877Z,2.35
2018-06-20T14:29:02.638Z,2.10
2018-06-20T14:31:34.961Z,1.90
2018-06-20T14:34:07.195Z,2.20
2018-06-20T14:36:39.437Z,1.77
2018-06-20T14:39:11.687Z,2.10
2018-06-20T14:41:43.868Z,2.08
2018-06-20T14:44:11.062Z,2.15
2018-06-20T14:46:37.804Z,2.00
2018-06-20T14:49:04.667Z,2.20
2018-06-20T14:51:31.407Z,2.47
2018-06-20T14:53:58.172Z,2.33
2018-06-20T14:56:25.007Z,2.62
2018-06-20T14:58:51.702Z,2.60
2018-06-20T15:01:18.422Z,2.72
2018-06-20T15:03:45.148Z,2.72
2018-06-20T15:06:11.966Z,2.33
2018-06-20T15:08:38.732Z,2.90
2018-06-20T15:11:05.577Z,2.92
2018-06-20T15:13:32.268Z,2.67
2018-06-20T15:18:08.674Z,2.58
2018-06-20T15:20:35.354Z,2.77
2018-06-20T15:23:02.154Z,2.75
2018-06-20T15:25:32.314Z,2.67
2018-06-20T15:28:04.472Z,3.10
2018-06-20T15:30:36.732Z,2.98
2018-06-20T15:33:09.041Z,3.00
2018-06-20T15:35:41.270Z,2.92
2018-06-20T15:38:16.441Z,3.27
2018-06-20T15:40:43.182Z,3.20
2018-06-20T15:43:09.841Z,3.35
2018-06-20T15:45:36.563Z,3.08
2018-06-20T15:48:03.264Z,3.27
2018-06-20T15:50:30.025Z,3.77
2018-06-20T15:52:56.785Z,3.20
2018-06-20T15:55:23.708Z,3.62
2018-06-20T15:57:50.574Z,2.90
2018-06-20T16:00:17.403Z,3.05
2018-06-20T16:02:44.222Z,2.80
2018-06-20T16:05:11.021Z,3.33
2018-06-20T16:07:38.060Z,3.27
2018-06-20T16:10:05.889Z,3.15
2018-06-20T16:12:32.687Z,2.95
2018-06-20T16:14:59.437Z,2.95
2018-06-20T16:17:26.452Z,2.50
2018-06-20T16:19:58.717Z,2.72
2018-06-20T16:22:31.065Z,3.17
2018-06-20T16:25:03.444Z,2.70
2018-06-20T16:27:35.725Z,2.80
2018-06-20T16:30:07.956Z,2.75
2018-06-20T16:32:34.729Z,2.83
2018-06-20T16:35:02.193Z,2.67
2018-06-20T16:37:28.975Z,2.75
2018-06-20T16:39:55.816Z,2.70
2018-06-20T16:42:22.636Z,2.22
2018-06-20T16:44:49.346Z,2.60
2018-06-20T16:47:16.067Z,2.83
2018-06-20T16:49:42.909Z,2.50
2018-06-20T16:52:09.713Z,2.80
2018-06-20T16:54:36.441Z,2.60
2018-06-20T16:57:03.223Z,2.15
2018-06-20T16:59:30.078Z,2.20
2018-06-20T17:02:02.380Z,2.30
2018-06-20T17:04:29.155Z,2.25
2018-06-20T17:06:55.859Z,2.47
2018-06-20T17:09:22.641Z,2.70
2018-06-20T17:11:54.829Z,2.10
2018-06-20T17:14:27.093Z,1.87
2018-06-20T17:16:59.419Z,2.45
2018-06-20T17:19:31.648Z,2.08
2018-06-20T17:22:03.975Z,2.02
2018-06-20T17:24:36.288Z,2.10
2018-06-20T17:27:03.133Z,2.05
2018-06-20T17:29:29.975Z,2.00
2018-06-20T17:31:56.731Z,1.82
2018-06-20T17:34:23.439Z,2.12
2018-06-20T17:36:50.149Z,2.10
2018-06-20T17:39:17.072Z,1.80
2018-06-20T17:41:43.811Z,1.95
2018-06-20T17:44:10.557Z,2.05
2018-06-20T17:46:37.329Z,2.10
2018-06-20T17:49:04.115Z,1.62
2018-06-20T17:51:30.893Z,2.00
2018-06-20T17:53:57.667Z,1.85
2018-06-20T17:56:24.557Z,1.80
2018-06-20T17:58:51.722Z,1.80
2018-06-20T18:01:18.443Z,1.92
2018-06-20T18:03:45.115Z,2.00
2018-06-20T18:06:17.261Z,1.90
2018-06-20T18:08:49.546Z,1.72
2018-06-20T18:11:18.127Z,2.00
2018-06-20T18:13:50.461Z,1.90
2018-06-20T18:16:22.753Z,1.55
2018-06-20T18:18:49.462Z,1.90
2018-06-20T18:21:16.880Z,1.75
2018-06-20T18:23:45.904Z,1.90
2018-06-20T18:26:14.783Z,1.72
2018-06-20T18:28:41.662Z,1.95
2018-06-20T18:31:08.428Z,1.90
2018-06-20T18:33:35.218Z,1.75
2018-06-20T18:36:01.868Z,1.75
2018-06-20T18:38:28.598Z,1.40
2018-06-20T18:40:55.382Z,1.87
2018-06-20T18:43:22.149Z,1.62
2018-06-20T18:45:48.970Z,1.65
2018-06-20T18:48:21.336Z,1.80
2018-06-20T18:50:48.098Z,1.75
2018-06-20T18:53:15.379Z,1.92
2018-06-20T18:55:42.132Z,1.70
2018-06-20T18:58:14.350Z,1.45
2018-06-20T19:00:46.621Z,1.90
2018-06-20T19:03:18.964Z,1.77
2018-06-20T19:05:51.312Z,1.77
2018-06-20T19:08:23.526Z,1.72
2018-06-20T19:10:52.739Z,2.02
2018-06-20T19:13:22.190Z,1.98
2018-06-20T19:15:51.109Z,2.40
2018-06-20T19:18:29.639Z,2.00
2018-06-20T19:20:57.941Z,2.10
2018-06-20T19:23:25.702Z,2.00
2018-06-20T19:25:52.985Z,1.80
2018-06-20T19:28:19.779Z,2.10
2018-06-20T19:30:46.611Z,2.40
2018-06-20T19:33:13.460Z,2.60
2018-06-20T19:35:40.353Z,2.62
2018-06-20T19:38:07.297Z,1.95
2018-06-20T19:40:34.072Z,2.10
2018-06-20T19:43:00.785Z,2.35
2018-06-20T19:45:28.502Z,2.50
2018-06-20T19:47:55.264Z,2.17
2018-06-20T19:50:22.126Z,2.17
2018-06-20T19:52:48.927Z,2.33
2018-06-20T19:55:15.656Z,2.15
2018-06-20T19:57:42.779Z,2.02
2018-06-20T20:00:09.544Z,2.10
2018-06-20T20:02:36.494Z,2.15
2018-06-20T20:05:03.255Z,2.20
2018-06-20T20:07:30.018Z,2.05
2018-06-20T20:09:56.978Z,2.12
2018-06-20T20:12:23.755Z,2.05
2018-06-20T20:14:50.551Z,1.90
2018-06-20T20:17:17.288Z,1.87
2018-06-20T20:19:44.127Z,1.82
2018-06-20T20:22:10.980Z,1.80
2018-06-20T20:24:38.002Z,2.20
2018-06-20T20:27:04.725Z,1.92
2018-06-20T20:29:31.558Z,1.77
2018-06-20T20:31:58.296Z,1.87
2018-06-20T20:34:25.016Z,1.87
2018-06-20T20:36:51.734Z,1.77
2018-06-20T20:39:18.484Z,2.10
2018-06-20T20:41:45.260Z,1.80
2018-06-20T20:44:12.132Z,1.67
2018-06-20T20:46:38.873Z,1.77
2018-06-20T20:49:05.635Z,1.82
2018-06-20T20:51:32.371Z,1.47
2018-06-20T20:53:59.162Z,1.90
2018-06-20T20:56:25.944Z,1.60
2018-06-20T20:58:52.702Z,1.98
2018-06-20T21:01:19.414Z,1.90
2018-06-20T21:03:46.244Z,1.80
2018-06-20T21:06:13.228Z,1.75
2018-06-20T21:08:40.021Z,1.67
2018-06-20T21:11:06.820Z,1.72
2018-06-20T21:13:33.645Z,1.82
2018-06-20T21:16:00.417Z,1.47
2018-06-20T21:18:27.248Z,1.47
2018-06-20T21:20:53.968Z,1.50
2018-06-20T21:23:20.712Z,1.37
2018-06-20T21:25:47.458Z,1.52
2018-06-20T21:28:14.224Z,1.62
2018-06-20T21:30:40.979Z,1.80
2018-06-20T21:33:07.745Z,1.92
2018-06-20T21:35:34.517Z,1.20
2018-06-20T21:38:01.509Z,1.60
2018-06-20T21:40:28.235Z,1.45
2018-06-20T21:42:55.069Z,1.40
2018-06-20T21:45:21.945Z,1.65
2018-06-20T21:47:48.689Z,1.50
2018-06-20T21:50:15.407Z,1.70
2018-06-20T21:52:42.185Z,1.40
2018-06-20T21:55:08.931Z,1.42
2018-06-20T21:57:35.869Z,1.50
2018-06-20T22:00:03.623Z,1.37
2018-06-20T22:02:30.418Z,1.42
2018-06-20T22:04:57.340Z,1.67
2018-06-20T22:07:24.241Z,1.50
2018-06-20T22:09:51.004Z,1.50
2018-06-20T22:12:17.819Z,1.37
2018-06-20T22:14:44.626Z,1.52
2018-06-20T22:17:11.328Z,1.30
2018-06-20T22:19:38.096Z,1.30
2018-06-20T22:22:05.106Z,1.60
2018-06-20T22:24:31.932Z,1.52
2018-06-20T22:26:58.668Z,1.60
2018-06-20T22:29:25.467Z,1.20
2018-06-20T22:31:52.278Z,1.40
2018-06-20T22:34:19.093Z,1.42
2018-06-20T22:36:45.940Z,1.30
2018-06-20T22:39:18.708Z,1.15
2018-06-20T22:41:45.544Z,1.60
2018-06-20T22:44:12.374Z,1.27
2018-06-20T22:46:39.338Z,1.05
2018-06-20T22:49:06.558Z,1.40
2018-06-20T22:51:33.372Z,0.98
2018-06-20T22:54:00.198Z,1.20
2018-06-20T22:56:27.082Z,0.90
2018-06-20T22:58:53.871Z,1.10
2018-06-20T23:01:20.691Z,1.30
2018-06-20T23:03:47.540Z,1.05
2018-06-20T23:06:14.360Z,1.30
2018-06-20T23:08:41.160Z,1.10
2018-06-20T23:11:07.922Z,1.07
2018-06-20T23:13:34.736Z,0.80
2018-06-20T23:16:01.612Z,1.17
2018-06-20T23:18:29.190Z,0.98
2018-06-20T23:20:56.376Z,0.70
2018-06-20T23:23:23.207Z,1.20
2018-06-20T23:25:50.050Z,1.10
2018-06-20T23:28:16.931Z,0.90
2018-06-20T23:30:43.751Z,1.20
2018-06-20T23:33:10.597Z,1.02
2018-06-20T23:35:37.358Z,1.10
2018-06-20T23:38:04.170Z,1.30
2018-06-20T23:40:31.137Z,1.00
2018-06-20T23:42:58.005Z,1.35
2018-06-20T23:45:24.941Z,1.25
2018-06-20T23:47:51.835Z,1.20
2018-06-20T23:50:18.824Z,1.15
2018-06-20T23:52:45.677Z,1.40
2018-06-20T23:55:12.497Z,1.32
2018-06-20T23:57:39.389Z,1.20
